Time;durP1;ratioP1;P1;durP2;ratioP2;P2;SDS_P1;SDS_P2;PMS_P1;PMS_P2;Temp;Humidity;BMP_temperature;BMP_pressure;BME280_temperature;BME280_humidity;BME280_pressure;Samples;Min_cycle;Max_cycle;Signal;HPM_P1;HPM_P2
2022/10/07 00:01:31;;;;;;;4.53;1.70;;;;;;;;;;5011085;28;20034;-94
2022/10/07 00:03:57;;;;;;;3.00;1.00;;;;;;;;;;5012447;28;20100;-93
2022/10/07 00:06:23;;;;;;;1.60;1.50;;;;;;;;;;5011129;28;20026;-94
2022/10/07 00:08:51;;;;;;;1.38;1.10;;;10.80;99.90;;;;;;5012226;28;20018;-91
2022/10/07 00:11:16;;;;;;;1.65;1.30;;;;;;;;;;5012523;28;20034;-93
2022/10/07 00:13:44;;;;;;;5.45;1.45;;;10.90;99.90;;;;;;5010736;28;20036;-92
2022/10/07 00:16:16;;;;;;;1.75;1.17;;;10.80;99.90;;;;;;4994535;28;20022;-93
2022/10/07 00:18:42;;;;;;;6.82;1.40;;;;;;;;;;5012593;28;20021;-93
2022/10/07 00:21:11;;;;;;;2.25;1.42;;;10.90;99.90;;;;;;5011929;28;20041;-94
2022/10/07 00:23:37;;;;;;;1.55;1.23;;;;;;;;;;5011233;28;20029;-92
2022/10/07 00:26:05;;;;;;;8.18;1.67;;;11.10;99.90;;;;;;5027211;28;20113;-92
2022/10/07 00:28:30;;;;;;;;;;;11.10;99.90;;;;;;4991920;28;20037;-92
2022/10/07 00:31:01;;;;;;;3.53;1.45;;;11.20;99.90;;;;;;5004551;28;19914;-92
2022/10/07 00:33:30;;;;;;;2.42;1.60;;;11.30;99.90;;;;;;5027450;28;20030;-92
2022/10/07 00:35:56;;;;;;;2.33;1.45;;;;;;;;;;5001197;28;20019;-94
2022/10/07 00:38:22;;;;;;;2.25;1.50;;;;;;;;;;5008838;28;20030;-92
2022/10/07 00:40:48;;;;;;;3.55;1.25;;;;;;;;;;5011514;28;20022;-93
2022/10/07 00:43:32;;;;;;;4.35;2.05;;;11.80;99.90;;;;;;5010857;28;20029;-95
2022/10/07 00:46:11;;;;;;;3.42;1.50;;;11.70;99.90;;;;;;5011615;28;20022;-92
2022/10/07 00:48:38;;;;;;;2.65;1.73;;;11.80;99.90;;;;;;5012044;28;20523;-92
2022/10/07 00:51:05;;;;;;;3.00;1.27;;;11.90;99.90;;;;;;4994297;28;20046;-93
2022/10/07 00:53:35;;;;;;;1.92;1.42;;;11.90;99.90;;;;;;5011594;28;20037;-93
2022/10/07 00:56:01;;;;;;;1.70;1.52;;;12.00;99.90;;;;;;5011454;28;20041;-92
2022/10/07 00:58:32;;;;;;;1.75;1.33;;;12.00;99.90;;;;;;5014675;28;20061;-93
2022/10/07 01:00:58;;;;;;;3.05;1.45;;;;;;;;;;5015229;28;20053;-92
2022/10/07 01:03:24;;;;;;;2.70;1.45;;;;;;;;;;5013910;28;20049;-93
2022/10/07 01:05:50;;;;;;;2.88;1.73;;;;;;;;;;5013927;28;20026;-93
2022/10/07 01:08:20;;;;;;;1.92;1.52;;;11.90;99.90;;;;;;5014577;28;20076;-93
2022/10/07 01:11:14;;;;;;;2.75;1.30;;;12.00;99.90;;;;;;5015086;28;21237;-93
2022/10/07 01:13:56;;;;;;;2.13;1.27;;;12.10;99.90;;;;;;5014697;28;20045;-93
2022/10/07 01:16:32;;;;;;;1.75;1.42;;;12.00;99.90;;;;;;5014863;28;20024;-93
2022/10/07 01:19:25;;;;;;;3.30;1.25;;;12.10;99.90;;;;;;5015059;28;20528;-93
2022/10/07 01:21:51;;;;;;;2.00;1.05;;;;;;;;;;4997440;28;20026;-93
2022/10/07 01:24:41;;;;;;;2.13;1.30;;;12.20;99.90;;;;;;5014786;28;20084;-92
2022/10/07 01:27:18;;;;;;;2.67;0.98;;;12.20;99.90;;;;;;4997370;28;20030;-93
2022/10/07 01:29:55;;;;;;;1.80;1.38;;;12.00;99.90;;;;;;4997165;28;20121;-94
2022/10/07 01:32:28;;;;;;;2.70;1.20;;;12.20;99.90;;;;;;5014566;28;20037;-92
2022/10/07 01:34:55;;;;;;;2.38;1.75;;;12.20;99.90;;;;;;5014268;28;20041;-92
2022/10/07 01:37:23;;;;;;;1.87;1.27;;;12.20;99.90;;;;;;5014369;28;20037;-93
2022/10/07 01:40:01;;;;;;;2.72;1.20;;;12.10;99.90;;;;;;4996986;28;20018;-93
2022/10/07 01:42:28;;;;;;;1.50;1.10;;;12.30;99.90;;;;;;5013739;28;20056;-92
2022/10/07 01:44:56;;;;;;;1.88;1.45;;;12.50;99.90;;;;;;5014046;28;20097;-92
2022/10/07 01:47:24;;;;;;;1.35;1.25;;;12.30;99.90;;;;;;5002776;28;20034;-93
2022/10/07 01:49:50;;;;;;;3.47;1.80;;;;;;;;;;5014400;28;20037;-93
2022/10/07 01:53:01;;;;;;;7.15;1.52;;;12.50;99.90;;;;;;5014068;28;20045;-92
2022/10/07 01:56:02;;;;;;;0.95;0.95;;;12.90;99.90;;;;;;5014210;28;20052;-93
2022/10/07 01:59:05;;;;;;;2.85;1.67;;;12.90;99.90;;;;;;5011032;28;20069;-93
2022/10/07 02:01:31;;;;;;;3.28;1.70;;;;;;;;;;5014312;28;20030;-92
2022/10/07 02:04:18;;;;;;;3.53;1.98;;;12.50;99.90;;;;;;5014007;28;20164;-93
2022/10/07 02:07:13;;;;;;;6.07;1.90;;;12.70;99.90;;;;;;5013755;28;20029;-93
2022/10/07 02:09:44;;;;;;;6.68;1.73;;;12.30;99.90;;;;;;4953296;28;20130;-93
2022/10/07 02:12:36;;;;;;;3.20;1.58;;;12.00;99.90;;;;;;4970088;28;20046;-93
2022/10/07 02:15:07;;;;;;;7.22;1.90;;;12.30;99.90;;;;;;4970084;28;20062;-93
2022/10/07 02:17:36;;;;;;;1.83;1.40;;;12.30;99.90;;;;;;4966148;28;20034;-92
2022/10/07 02:20:05;;;;;;;3.03;2.17;;;12.30;99.90;;;;;;4967017;28;20023;-92
2022/10/07 02:22:31;;;;;;;1.90;1.42;;;;;;;;;;4953170;28;20404;-92
2022/10/07 02:24:58;;;;;;;4.72;1.92;;;12.30;99.90;;;;;;4966529;28;20126;-94
2022/10/07 02:27:30;;;;;;;2.53;1.80;;;12.20;99.90;;;;;;4960958;28;20065;-92
2022/10/07 02:30:04;;;;;;;2.53;1.92;;;12.10;99.90;;;;;;4971015;28;20089;-93
2022/10/07 02:32:32;;;;;;;2.50;1.73;;;12.00;99.90;;;;;;4962718;28;20101;-93
2022/10/07 02:35:04;;;;;;;2.08;1.40;;;11.80;99.90;;;;;;4972175;28;20027;-92
2022/10/07 02:37:34;;;;;;;2.05;1.35;;;11.70;99.90;;;;;;4956530;28;20065;-93
2022/10/07 02:40:01;;;;;;;6.00;1.90;;;11.70;99.90;;;;;;4972540;28;20031;-93
2022/10/07 02:42:33;;;;;;;1.80;1.38;;;11.60;99.90;;;;;;4972442;28;20030;-93
2022/10/07 02:45:08;;;;;;;1.50;1.20;;;11.60;99.90;;;;;;4971869;28;20512;-91
2022/10/07 02:47:48;;;;;;;3.10;1.75;;;11.90;99.90;;;;;;5006904;28;20039;-92
2022/10/07 02:50:20;;;;;;;2.50;1.48;;;11.80;99.90;;;;;;5013119;28;20038;-92
2022/10/07 02:52:46;;;;;;;1.55;1.08;;;;;;;;;;5009590;28;20038;-93
2022/10/07 02:55:16;;;;;;;1.80;1.23;;;12.00;99.90;;;;;;5004285;28;20100;-93
2022/10/07 02:57:46;;;;;;;2.97;1.88;;;12.10;99.90;;;;;;5013356;28;20072;-93
2022/10/07 03:00:14;;;;;;;4.03;1.50;;;12.20;99.90;;;;;;5012221;28;20030;-93
2022/10/07 03:02:56;;;;;;;1.27;1.17;;;12.40;99.90;;;;;;5012164;28;20049;-93
2022/10/07 03:05:24;;;;;;;3.08;1.60;;;;;;;;;;5012905;28;20044;-94
2022/10/07 03:07:54;;;;;;;2.80;1.55;;;12.30;99.90;;;;;;5000027;28;20495;-93
2022/10/07 03:10:20;;;;;;;4.22;1.85;;;12.20;99.90;;;;;;5013317;28;20022;-93
2022/10/07 03:12:46;;;;;;;3.28;1.77;;;;;;;;;;5002610;28;20084;-92
2022/10/07 03:15:12;;;;;;;3.60;2.25;;;;;;;;;;5010099;28;20057;-93
2022/10/07 03:17:39;;;;;;;2.00;1.80;;;12.30;99.90;;;;;;5011758;28;20030;-92
2022/10/07 03:20:06;;;;;;;3.50;1.93;;;12.30;99.90;;;;;;5011614;28;20026;-92
2022/10/07 03:22:32;;;;;;;3.20;1.70;;;;;;;;;;5013102;28;20097;-92
2022/10/07 03:24:58;;;;;;;2.45;1.73;;;;;;;;;;5012830;28;20101;-91
2022/10/07 03:27:24;;;;;;;3.28;1.75;;;;;;;;;;5012844;28;20030;-92
2022/10/07 03:29:50;;;;;;;4.95;1.50;;;;;;;;;;5012860;28;20109;-93
2022/10/07 03:32:16;;;;;;;1.85;1.45;;;;;;;;;;5012805;28;20461;-91
2022/10/07 03:34:42;;;;;;;3.53;1.48;;;;;;;;;;5012309;28;20627;-92
2022/10/07 03:37:08;;;;;;;2.42;1.30;;;;;;;;;;5012648;28;20061;-93
2022/10/07 03:39:34;;;;;;;2.88;1.30;;;;;;;;;;5012348;28;20406;-93
2022/10/07 03:42:00;;;;;;;1.45;1.33;;;;;;;;;;5012782;28;20037;-92
2022/10/07 03:44:26;;;;;;;6.13;1.27;;;;;;;;;;5012597;28;20022;-92
2022/10/07 03:46:52;;;;;;;1.63;1.25;;;;;;;;;;5012622;28;20041;-92
2022/10/07 03:49:21;;;;;;;2.50;0.88;;;;;;;;;;5012810;28;20021;-92
2022/10/07 03:51:47;;;;;;;1.27;0.90;;;;;;;;;;5012711;28;20129;-92
2022/10/07 03:54:13;;;;;;;2.53;0.90;;;;;;;;;;5011473;28;20451;-92
2022/10/07 03:56:39;;;;;;;1.23;0.98;;;;;;;;;;5012422;28;20033;-93
2022/10/07 03:59:05;;;;;;;2.33;1.08;;;;;;;;;;5012628;28;20113;-93
2022/10/07 04:01:31;;;;;;;1.75;1.10;;;;;;;;;;5011667;28;20433;-92
2022/10/07 04:03:59;;;;;;;2.72;1.58;;;11.10;99.90;;;;;;5012561;28;20052;-93
2022/10/07 04:06:25;;;;;;;1.25;1.10;;;;;;;;;;5011615;28;20049;-92
2022/10/07 04:08:52;;;;;;;1.55;1.10;;;11.10;99.90;;;;;;5000818;28;20016;-93
2022/10/07 04:11:18;;;;;;;2.75;1.60;;;;;;;;;;5010950;28;20030;-93
2022/10/07 04:13:44;;;;;;;3.15;1.60;;;;;;;;;;5012266;28;20040;-92
2022/10/07 04:16:11;;;;;;;2.28;1.27;;;;;;;;;;5010650;28;20053;-93
2022/10/07 04:18:38;;;;;;;1.30;1.20;;;;;;;;;;5010802;28;20071;-93
2022/10/07 04:21:03;;;;;;;3.00;1.27;;;11.20;99.90;;;;;;5000143;28;20037;-93
2022/10/07 04:23:29;;;;;;;1.52;1.40;;;;;;;;;;5012157;28;20386;-92
2022/10/07 04:25:55;;;;;;;1.38;1.17;;;;;;;;;;5011229;28;20026;-92
2022/10/07 04:28:24;;;;;;;4.75;1.70;;;10.80;99.90;;;;;;5001008;28;20562;-92
2022/10/07 04:30:50;;;;;;;1.40;1.30;;;;;;;;;;5010900;28;20033;-92
2022/10/07 04:33:18;;;;;;;4.57;1.63;;;10.70;99.90;;;;;;5015034;28;20538;-92
2022/10/07 04:35:44;;;;;;;3.17;2.17;;;;;;;;;;4997744;28;20031;-92
2022/10/07 04:38:11;;;;;;;3.65;2.30;;;10.60;99.90;;;;;;5016047;28;20034;-93
2022/10/07 04:40:41;;;;;;;1.27;1.17;;;10.50;99.90;;;;;;5015193;28;20537;-93
2022/10/07 04:43:18;;;;;;;2.22;1.55;;;10.50;99.90;;;;;;4997608;28;20098;-94
2022/10/07 04:45:44;;;;;;;3.17;2.35;;;;;;;;;;5015017;28;20113;-93
2022/10/07 04:48:10;;;;;;;2.25;1.70;;;;;;;;;;5015602;28;20018;-93
2022/10/07 04:50:39;;;;;;;2.45;1.45;;;;;;;;;;5015470;28;20115;-91
2022/10/07 04:53:06;;;;;;;2.53;1.63;;;10.50;99.90;;;;;;5014307;28;20499;-92
2022/10/07 04:55:37;;;;;;;4.32;1.83;;;10.50;99.90;;;;;;4998014;28;20026;-92
2022/10/07 04:58:03;;;;;;;5.18;1.92;;;10.30;99.90;;;;;;5015865;28;20040;-94
2022/10/07 05:00:29;;;;;;;2.45;2.10;;;;;;;;;;5009391;28;20026;-93
2022/10/07 05:02:55;;;;;;;1.77;1.48;;;;;;;;;;4999336;28;20054;-91
2022/10/07 05:05:22;;;;;;;1.45;1.15;;;;;;;;;;5015169;28;20025;-92
2022/10/07 05:07:51;;;;;;;4.90;2.20;;;10.20;99.90;;;;;;5015501;28;20033;-93
2022/10/07 05:10:17;;;;;;;3.13;1.95;;;;;;;;;;4996702;28;20030;-92
2022/10/07 05:12:43;;;;;;;4.03;2.10;;;;;;;;;;5012519;28;20447;-92
2022/10/07 05:15:09;;;;;;;3.40;1.38;;;10.10;99.90;;;;;;5014751;28;20109;-92
2022/10/07 05:17:35;;;;;;;2.33;1.67;;;;;;;;;;4988416;28;20495;-92
2022/10/07 05:20:03;;;;;;;8.55;2.05;;;;;;;;;;5010561;28;20025;-92
2022/10/07 05:22:30;;;;;;;4.07;1.50;;;;;;;;;;5014876;28;20434;-93
2022/10/07 05:24:56;;;;;;;2.07;1.87;;;;;;;;;;5010812;28;20550;-94
2022/10/07 05:27:22;;;;;;;1.95;1.48;;;;;;;;;;5013978;28;20502;-93
2022/10/07 05:29:48;;;;;;;5.55;2.25;;;;;;;;;;5013591;28;20594;-93
2022/10/07 05:32:14;;;;;;;5.00;2.58;;;;;;;;;;5013448;28;20048;-93
2022/10/07 05:34:40;;;;;;;4.63;2.05;;;;;;;;;;5012423;28;20407;-94
2022/10/07 05:37:06;;;;;;;2.75;2.10;;;;;;;;;;5000342;28;20022;-93
2022/10/07 05:39:32;;;;;;;4.82;2.60;;;;;;;;;;5009780;28;20443;-93
2022/10/07 05:41:59;;;;;;;9.05;3.42;;;;;;;;;;5012736;28;20026;-92
2022/10/07 05:44:25;;;;;;;5.15;3.35;;;;;;;;;;5004474;28;20034;-93
2022/10/07 05:46:51;;;;;;;13.18;3.00;;;;;;;;;;5013224;28;20497;-92
2022/10/07 05:49:17;;;;;;;6.70;2.85;;;;;;;;;;5013161;28;20033;-92
2022/10/07 05:51:43;;;;;;;3.78;2.45;;;;;;;;;;5014243;28;20042;-95
2022/10/07 05:54:08;;;;;;;7.43;2.95;;;;;;;;;;5014264;28;20025;-94
2022/10/07 05:56:37;;;;;;;12.73;2.45;;;;;;;;;;5013608;28;20053;-94
2022/10/07 05:59:03;;;;;;;6.03;2.28;;;;;;;;;;5002167;28;20833;-93
2022/10/07 06:01:29;;;;;;;7.53;3.05;;;;;;;;;;5013507;28;20112;-95
2022/10/07 06:03:56;;;;;;;14.02;2.40;;;10.90;99.90;;;;;;5012328;28;20040;-91
2022/10/07 06:06:23;;;;;;;6.18;2.65;;;10.90;99.90;;;;;;5013787;28;20040;-92
2022/10/07 06:08:49;;;;;;;6.15;2.00;;;10.90;99.90;;;;;;5013573;28;20046;-94
2022/10/07 06:14:01;;;;;;;4.75;2.67;;;;;;;;;;5003867;28;20112;-92
2022/10/07 06:16:27;;;;;;;6.28;2.05;;;;;;;;;;5013669;28;20029;-92
2022/10/07 06:18:54;;;;;;;9.95;2.97;;;11.20;99.90;;;;;;5011669;28;20029;-94
2022/10/07 06:21:22;;;;;;;13.60;3.58;;;11.20;99.90;;;;;;4995614;28;20065;-94
2022/10/07 06:23:51;;;;;;;6.43;3.17;;;11.10;99.90;;;;;;5012876;28;20029;-94
2022/10/07 06:26:17;;;;;;;8.20;3.10;;;;;;;;;;5008113;28;20037;-93
2022/10/07 06:28:43;;;;;;;9.90;2.90;;;;;;;;;;5004284;28;20022;-92
2022/10/07 06:31:12;;;;;;;5.88;2.97;;;11.40;99.90;;;;;;5010885;28;20068;-94
2022/10/07 06:33:38;;;;;;;6.85;3.33;;;;;;;;;;5012545;28;20084;-95
2022/10/07 06:36:05;;;;;;;4.88;3.30;;;11.60;99.90;;;;;;5012549;28;20022;-95
2022/10/07 06:38:31;;;;;;;8.52;4.05;;;;;;;;;;5013248;28;20491;-94
2022/10/07 06:41:02;;;;;;;10.75;3.67;;;12.00;99.90;;;;;;5012997;28;20388;-92
2022/10/07 06:43:29;;;;;;;4.93;3.63;;;12.10;99.90;;;;;;4997208;28;20534;-95
2022/10/07 06:46:01;;;;;;;18.65;7.72;;;12.20;99.90;;;;;;5004952;28;20033;-83
2022/10/07 06:48:28;;;;;;;12.85;4.95;;;12.50;99.90;;;;;;5000795;28;20410;-83
2022/10/07 06:50:57;;;;;;;8.48;3.00;;;12.90;99.90;;;;;;5005074;28;20037;-83
2022/10/07 06:53:23;;;;;;;6.90;2.90;;;;;;;;;;5001743;28;20092;-82
2022/10/07 06:55:58;;;;;;;4.28;3.10;;;15.20;99.90;;;;;;5000406;28;20522;-84
2022/10/07 06:58:27;;;;;;;9.18;2.63;;;;;;;;;;5005803;28;20030;-84
2022/10/07 07:00:53;;;;;;;6.63;3.13;;;17.50;98.80;;;;;;5004859;28;20298;-83
2022/10/07 07:03:19;;;;;;;4.85;3.63;;;;;;;;;;4982041;28;20065;-83
2022/10/07 07:05:46;;;;;;;6.00;3.38;;;18.90;96.00;;;;;;5005107;28;20608;-83
2022/10/07 07:08:13;;;;;;;5.82;3.85;;;;;;;;;;5005880;28;20396;-82
2022/10/07 07:10:41;;;;;;;10.60;4.10;;;21.80;95.80;;;;;;5004562;28;20026;-82
2022/10/07 07:13:07;;;;;;;8.15;4.50;;;;;;;;;;5001222;28;20061;-83
2022/10/07 07:15:34;;;;;;;9.85;4.97;;;;;;;;;;5000504;28;20052;-86
2022/10/07 07:18:00;;;;;;;9.85;4.78;;;;;;;;;;5004967;28;20046;-89
2022/10/07 07:20:33;;;;;;;7.35;4.07;;;;;;;;;;5005257;28;20391;-82
2022/10/07 07:22:59;;;;;;;7.68;4.65;;;;;;;;;;5001573;28;20054;-86
2022/10/07 07:25:25;;;;;;;10.90;5.32;;;;;;;;;;4999660;28;20037;-86
2022/10/07 07:27:53;;;;;;;11.25;5.20;;;;;;;;;;5006159;28;20384;-86
2022/10/07 07:30:22;;;;;;;11.43;6.10;;;;;;;;;;5005393;28;20108;-82
2022/10/07 07:32:48;;;;;;;12.93;5.72;;;;;;;;;;5003087;28;20045;-82
2022/10/07 07:35:14;;;;;;;10.93;5.90;;;;;;;;;;4998023;28;20029;-87
2022/10/07 07:37:40;;;;;;;10.70;5.78;;;;;;;;;;5004951;28;20033;-88
2022/10/07 07:40:07;;;;;;;9.90;5.80;;;28.80;60.20;;;;;;5004986;28;20056;-88
2022/10/07 07:42:33;;;;;;;7.20;4.88;;;;;;;;;;5004543;28;20403;-88
2022/10/07 07:44:59;;;;;;;6.97;4.47;;;;;;;;;;4996446;28;20056;-87
2022/10/07 07:47:25;;;;;;;9.38;4.82;;;38.60;42.70;;;;;;5004708;28;20021;-90
2022/10/07 07:49:51;;;;;;;6.60;4.45;;;40.60;42.40;;;;;;4993270;28;20028;-83
2022/10/07 07:52:17;;;;;;;11.50;4.90;;;;;;;;;;5003936;28;20046;-83
2022/10/07 07:54:43;;;;;;;6.97;4.32;;;42.70;42.60;;;;;;4996068;28;21261;-83
2022/10/07 07:57:09;;;;;;;6.73;4.80;;;43.70;41.10;;;;;;5005595;28;20499;-83
2022/10/07 07:59:36;;;;;;;8.77;4.43;;;;;;;;;;5006948;28;20038;-84
2022/10/07 08:02:02;;;;;;;6.45;4.28;;;;;;;;;;5004394;28;20049;-84
2022/10/07 08:04:29;;;;;;;9.18;5.88;;;46.30;32.20;;;;;;4996080;28;20041;-84
2022/10/07 08:06:55;;;;;;;5.28;4.20;;;;;;;;;;5004923;28;20049;-84
2022/10/07 08:09:21;;;;;;;;;;;46.70;31.50;;;;;;5011079;28;20041;-83
2022/10/07 08:11:47;;;;;;;3.65;2.30;;;46.10;37.30;;;;;;5008696;28;19921;-83
2022/10/07 08:14:13;;;;;;;;;;;46.30;31.70;;;;;;4999239;28;20440;-83
2022/10/07 08:16:39;;;;;;;4.38;2.60;;;46.10;38.70;;;;;;5009741;28;19910;-87
2022/10/07 08:19:04;;;;;;;;;;;46.20;28.70;;;;;;5010898;28;20515;-82
2022/10/07 08:21:31;;;;;;;2.50;1.80;;;47.40;31.50;;;;;;5007856;28;20000;-84
2022/10/07 08:23:58;;;;;;;2.92;1.70;;;48.40;29.50;;;;;;4996815;28;20562;-84
2022/10/07 08:26:26;;;;;;;3.55;2.20;;;48.90;32.00;;;;;;5009073;28;20045;-86
2022/10/07 08:28:52;;;;;;;2.75;1.90;;;;;;;;;;5009436;28;20036;-82
2022/10/07 08:31:18;;;;;;;2.25;1.80;;;50.10;33.60;;;;;;5009315;28;20073;-81
2022/10/07 08:33:46;;;;;;;2.72;1.70;;;50.00;32.90;;;;;;4998023;28;20088;-82
2022/10/07 08:36:17;;;;;;;3.85;1.60;;;50.30;27.80;;;;;;5009714;28;20026;-83
2022/10/07 08:38:44;;;;;;;2.92;1.98;;;50.50;27.60;;;;;;5010032;28;20036;-80
2022/10/07 08:41:10;;;;;;;6.53;1.27;;;50.80;32.20;;;;;;5007951;28;20044;-80
2022/10/07 08:43:40;;;;;;;3.03;1.13;;;50.70;27.20;;;;;;4998013;28;20030;-82
2022/10/07 08:46:11;;;;;;;3.05;1.13;;;51.10;31.70;;;;;;5008309;28;20018;-81
2022/10/07 08:48:38;;;;;;;3.08;1.30;;;51.00;26.80;;;;;;4991268;28;20120;-82
2022/10/07 08:51:12;;;;;;;3.85;1.17;;;49.90;30.60;;;;;;5008853;28;20026;-81
2022/10/07 08:53:39;;;;;;;1.83;1.02;;;;;;;;;;4979737;28;20025;-82
2022/10/07 08:56:05;;;;;;;3.47;1.25;;;;;;;;;;5007816;28;20037;-81
2022/10/07 08:58:39;;;;;;;4.40;1.48;;;43.90;28.10;;;;;;5009827;28;20026;-82
2022/10/07 09:01:24;;;;;;;3.80;1.35;;;43.70;28.40;;;;;;5008040;28;20060;-82
2022/10/07 09:04:09;;;;;;;4.87;1.33;;;42.90;29.10;;;;;;4997281;28;20062;-81
2022/10/07 09:06:37;;;;;;;;;;;43.10;29.50;;;;;;5006710;28;20272;-81
2022/10/07 09:09:14;;;;;;;5.78;1.70;;;43.00;36.50;;;;;;5009600;28;19909;-81
2022/10/07 09:11:42;;;;;;;6.13;1.38;;;42.20;29.50;;;;;;5007398;28;20108;-81
2022/10/07 09:14:16;;;;;;;3.00;1.15;;;41.80;29.60;;;;;;5002886;28;20919;-81
2022/10/07 09:16:45;;;;;;;3.72;1.20;;;43.30;30.40;;;;;;5007990;28;20105;-81
2022/10/07 09:19:24;;;;;;;4.65;1.08;;;43.80;29.00;;;;;;5008736;28;20033;-82
2022/10/07 09:21:50;;;;;;;1.55;0.88;;;45.30;29.80;;;;;;5006772;28;20478;-83
2022/10/07 09:24:23;;;;;;;1.50;0.93;;;46.30;32.90;;;;;;5003841;28;20044;-82
2022/10/07 09:26:54;;;;;;;4.50;1.25;;;47.50;27.30;;;;;;5008345;28;20072;-83
2022/10/07 09:29:26;;;;;;;2.80;0.60;;;47.70;27.10;;;;;;5007669;28;20562;-83
2022/10/07 09:31:52;;;;;;;5.47;0.93;;;47.60;27.20;;;;;;4990312;28;20058;-83
2022/10/07 09:34:22;;;;;;;1.60;0.85;;;47.80;32.30;;;;;;5003255;28;20037;-85
2022/10/07 09:37:12;;;;;;;2.15;0.85;;;47.30;27.10;;;;;;5007897;28;20030;-85
2022/10/07 09:39:39;;;;;;;1.42;0.60;;;46.70;32.20;;;;;;5007504;28;20540;-83
2022/10/07 09:42:16;;;;;;;3.83;0.50;;;46.60;27.40;;;;;;5007699;28;20509;-84
2022/10/07 09:44:42;;;;;;;3.22;0.70;;;;;;;;;;5002878;28;20391;-82
2022/10/07 09:47:19;;;;;;;1.48;0.90;;;46.30;27.30;;;;;;5008253;28;20034;-82
2022/10/07 09:49:50;;;;;;;1.80;0.85;;;47.20;27.30;;;;;;5007147;28;20069;-83
2022/10/07 09:52:16;;;;;;;1.65;0.65;;;;;;;;;;5006960;28;20824;-83
2022/10/07 09:54:47;;;;;;;2.70;0.95;;;47.80;32.20;;;;;;5003665;28;20368;-83
2022/10/07 09:57:31;;;;;;;2.47;0.80;;;47.50;31.70;;;;;;5007956;28;20037;-85
2022/10/07 10:00:24;;;;;;;2.03;1.08;;;48.40;31.80;;;;;;5008063;28;20037;-86
2022/10/07 10:03:02;;;;;;;4.78;0.95;;;47.70;27.20;;;;;;5002152;28;20053;-83
2022/10/07 10:05:35;;;;;;;1.48;0.60;;;46.60;27.10;;;;;;4987269;28;20034;-83
2022/10/07 10:08:18;;;;;;;3.17;1.02;;;46.10;27.20;;;;;;5007504;28;20030;-83
2022/10/07 10:10:58;;;;;;;7.30;1.05;;;46.20;27.30;;;;;;4990040;28;20022;-84
2022/10/07 10:13:26;;;;;;;1.98;0.90;;;46.50;27.20;;;;;;5002783;28;20034;-83
2022/10/07 10:15:52;;;;;;;3.20;0.77;;;;;;;;;;5005310;28;20073;-83
2022/10/07 10:18:30;;;;;;;1.77;0.60;;;47.90;31.10;;;;;;5006955;28;20057;-84
2022/10/07 10:21:26;;;;;;;2.13;1.20;;;47.90;26.20;;;;;;5006869;28;20037;-85
2022/10/07 10:23:58;;;;;;;6.30;1.02;;;47.90;26.10;;;;;;5002111;28;20559;-84
2022/10/07 10:26:27;;;;;;;3.20;0.70;;;;;;;;;;5007621;28;20064;-86
2022/10/07 10:29:27;;;;;;;1.85;0.57;;;49.00;30.50;;;;;;5005594;28;20028;-83
2022/10/07 10:31:59;;;;;;;3.72;0.98;;;49.20;29.90;;;;;;5007411;28;20076;-84
2022/10/07 10:34:43;;;;;;;3.13;0.82;;;48.80;30.10;;;;;;5002125;28;20018;-83
2022/10/07 10:37:22;;;;;;;5.45;0.88;;;48.80;29.80;;;;;;5003095;28;20025;-83
2022/10/07 10:39:48;;;;;;;2.03;0.80;;;;;;;;;;5006633;28;20117;-85
2022/10/07 10:42:19;;;;;;;4.15;0.60;;;48.50;25.50;;;;;;5008458;28;20534;-85
2022/10/07 10:45:06;;;;;;;1.02;0.50;;;47.90;25.50;;;;;;4983362;28;20037;-85
2022/10/07 10:47:52;;;;;;;1.92;0.75;;;47.20;25.30;;;;;;5006433;28;20068;-84
2022/10/07 10:50:45;;;;;;;0.52;0.35;;;44.50;30.60;;;;;;5006961;28;20025;-84
2022/10/07 10:53:48;;;;;;;1.85;0.30;;;43.80;31.70;;;;;;4998787;28;20038;-85
2022/10/07 10:56:36;;;;;;;3.22;0.70;;;43.70;25.70;;;;;;5006319;28;20426;-86
2022/10/07 10:59:08;;;;;;;2.10;0.63;;;44.30;31.10;;;;;;5005524;28;20037;-85
2022/10/07 11:01:40;;;;;;;1.35;0.40;;;45.00;25.30;;;;;;5005814;28;20499;-85
2022/10/07 11:04:27;;;;;;;1.02;0.32;;;44.80;25.30;;;;;;4983606;28;20034;-83
2022/10/07 11:06:59;;;;;;;1.27;0.73;;;43.40;25.10;;;;;;5006806;28;20045;-85
2022/10/07 11:09:50;;;;;;;0.70;0.30;;;41.30;25.80;;;;;;5006232;28;20113;-85
2022/10/07 11:12:30;;;;;;;1.08;0.50;;;40.90;26.20;;;;;;4996422;28;20100;-86
2022/10/07 11:15:11;;;;;;;1.60;0.60;;;40.10;33.80;;;;;;4981777;28;20125;-85
2022/10/07 11:17:38;;;;;;;1.27;0.43;;;40.40;28.40;;;;;;5007310;28;20033;-82
2022/10/07 11:20:04;;;;;;;1.13;0.60;;;;;;;;;;5005769;28;20029;-82
2022/10/07 11:22:41;;;;;;;1.92;0.70;;;39.80;26.90;;;;;;5007134;28;20549;-82
2022/10/07 11:25:26;;;;;;;2.95;0.60;;;39.30;36.20;;;;;;4999388;28;20030;-82
2022/10/07 11:27:54;;;;;;;0.68;0.50;;;37.70;28.40;;;;;;5007267;28;20030;-82
2022/10/07 11:30:22;;;;;;;0.47;0.40;;;37.00;28.40;;;;;;4987972;28;20060;-83
2022/10/07 11:33:06;;;;;;;1.95;0.60;;;35.20;29.60;;;;;;5006070;28;20034;-82
2022/10/07 11:35:47;;;;;;;0.55;0.45;;;34.20;30.40;;;;;;5003025;28;20029;-82
2022/10/07 11:38:19;;;;;;;4.88;0.60;;;33.50;31.60;;;;;;5007318;28;20510;-82
2022/10/07 11:40:59;;;;;;;1.55;0.63;;;33.40;32.10;;;;;;5005722;28;20030;-83
2022/10/07 11:43:32;;;;;;;1.88;0.80;;;32.80;32.50;;;;;;5001743;28;20033;-82
2022/10/07 11:46:09;;;;;;;0.68;0.50;;;32.50;32.60;;;;;;5005098;28;20535;-82
2022/10/07 11:48:43;;;;;;;3.33;1.10;;;32.70;33.40;;;;;;5006751;28;20081;-82
2022/10/07 11:51:20;;;;;;;2.67;0.63;;;32.20;44.00;;;;;;4998925;28;20053;-82
2022/10/07 11:53:46;;;;;;;0.43;0.40;;;;;;;;;;4997005;28;21539;-82
2022/10/07 11:56:23;;;;;;;4.13;1.70;;;31.60;36.20;;;;;;5007170;28;20022;-82
2022/10/07 11:59:02;;;;;;;1.02;0.80;;;30.60;35.50;;;;;;5005153;28;20296;-83
2022/10/07 12:01:27;;;;;;;1.90;0.70;;;30.10;47.00;;;;;;5005943;28;20037;-82
2022/10/07 12:03:53;;;;;;;0.73;0.45;;;;;;;;;;4984390;28;20041;-81
2022/10/07 12:06:19;;;;;;;4.88;0.90;;;29.90;35.90;;;;;;5005980;28;20022;-82
2022/10/07 12:08:45;;;;;;;0.73;0.55;;;;;;;;;;4989047;28;20108;-82
2022/10/07 12:11:11;;;;;;;0.60;0.47;;;;;;;;;;5005207;28;20048;-82
2022/10/07 12:13:44;;;;;;;1.95;0.40;;;29.80;35.50;;;;;;5000110;28;20022;-81
2022/10/07 12:16:22;;;;;;;1.83;0.40;;;29.40;39.10;;;;;;5003619;28;20403;-82
2022/10/07 12:19:06;;;;;;;1.15;0.82;;;29.30;36.20;;;;;;5006756;28;20022;-82
2022/10/07 12:21:58;;;;;;;1.23;0.65;;;29.40;36.30;;;;;;5004523;28;20030;-83
2022/10/07 12:24:25;;;;;;;1.33;0.77;;;29.30;35.90;;;;;;4992586;28;20042;-83
2022/10/07 12:26:54;;;;;;;2.83;0.70;;;29.10;35.80;;;;;;4998006;28;20034;-84
2022/10/07 12:29:29;;;;;;;0.60;0.60;;;29.00;36.20;;;;;;5005527;28;20113;-83
2022/10/07 12:31:55;;;;;;;1.73;0.80;;;;;;;;;;5005795;28;20057;-82
2022/10/07 12:34:21;;;;;;;1.90;0.90;;;;;;;;;;4999418;28;20110;-86
2022/10/07 12:36:47;;;;;;;2.28;0.90;;;;;;;;;;5006722;28;20113;-86
2022/10/07 12:39:13;;;;;;;2.38;0.77;;;;;;;;;;5002728;28;20404;-81
2022/10/07 12:41:44;;;;;;;0.80;0.70;;;28.10;49.30;;;;;;5005274;28;20033;-82
2022/10/07 12:44:22;;;;;;;2.60;1.08;;;27.80;37.10;;;;;;4998914;28;20588;-82
2022/10/07 12:47:04;;;;;;;8.32;1.00;;;27.30;38.40;;;;;;5003908;28;20471;-81
2022/10/07 12:49:47;;;;;;;1.73;1.05;;;27.30;39.10;;;;;;5003911;28;20117;-81
2022/10/07 12:52:18;;;;;;;1.20;0.80;;;27.10;38.80;;;;;;5002911;28;20053;-81
2022/10/07 12:55:08;;;;;;;1.90;0.88;;;27.20;40.10;;;;;;5002704;28;20034;-81
2022/10/07 12:57:38;;;;;;;4.30;0.80;;;27.10;39.50;;;;;;4988499;28;20022;-82
2022/10/07 13:00:06;;;;;;;1.45;0.95;;;;;;;;;;5007413;28;20411;-82
2022/10/07 13:02:35;;;;;;;5.35;0.85;;;27.00;52.80;;;;;;5009448;28;20052;-83
2022/10/07 13:05:28;;;;;;;1.92;0.95;;;27.00;52.30;;;;;;5001646;28;20049;-82
2022/10/07 13:08:09;;;;;;;0.70;0.70;;;26.80;40.80;;;;;;5007607;28;20038;-82
2022/10/07 13:10:40;;;;;;;2.20;0.88;;;26.70;40.70;;;;;;5005814;28;20049;-88
2022/10/07 13:13:14;;;;;;;1.63;0.85;;;26.70;40.80;;;;;;5005243;28;20044;-89
2022/10/07 13:15:56;;;;;;;0.68;0.68;;;26.60;40.80;;;;;;5006114;28;20045;-82
2022/10/07 13:18:55;;;;;;;1.05;0.80;;;26.70;53.30;;;;;;5009342;28;20032;-81
2022/10/07 13:21:32;;;;;;;0.77;0.68;;;26.50;40.90;;;;;;4945446;29;20082;-81
2022/10/07 13:23:58;;;;;;;0.68;0.60;;;;;;;;;;4941981;29;20709;-84
2022/10/07 13:26:25;;;;;;;2.17;0.85;;;26.30;41.30;;;;;;4947400;29;20047;-87
2022/10/07 13:28:56;;;;;;;3.13;1.10;;;26.10;54.40;;;;;;4931653;29;20725;-86
2022/10/07 13:31:26;;;;;;;1.40;1.10;;;25.80;42.60;;;;;;4947276;29;20041;-86
2022/10/07 13:33:52;;;;;;;1.65;1.27;;;;;;;;;;4941174;29;20035;-85
2022/10/07 13:36:18;;;;;;;1.80;1.03;;;;;;;;;;4931023;29;20579;-83
2022/10/07 13:38:46;;;;;;;1.35;1.23;;;25.60;43.30;;;;;;4948040;29;20037;-83
2022/10/07 13:41:18;;;;;;;1.85;1.17;;;25.60;43.60;;;;;;4930596;29;20050;-83
2022/10/07 13:43:44;;;;;;;0.70;0.70;;;;;;;;;;4941412;29;20098;-83
2022/10/07 13:46:13;;;;;;;2.65;1.02;;;25.20;44.50;;;;;;4948545;28;20027;-83
2022/10/07 13:48:42;;;;;;;1.85;1.25;;;25.00;44.80;;;;;;4947664;29;20038;-83
2022/10/07 13:51:23;;;;;;;2.45;1.20;;;25.10;45.50;;;;;;4942654;28;20039;-84